sensor_id;sensor_type;location;lat;lon;timestamp;pressure;altitude;pressure_sealevel;temperature;humidity
43770;BME280;6597;52.218;9.882;2022-08-03T00:01:05;100776.09;;;19.22;84.53
43770;BME280;6597;52.218;9.882;2022-08-03T00:03:31;100774.38;;;19.21;84.75
43770;BME280;6597;52.218;9.882;2022-08-03T00:05:58;100771.16;;;19.16;85.14
43770;BME280;6597;52.218;9.882;2022-08-03T00:08:25;100768.72;;;19.13;84.88
43770;BME280;6597;52.218;9.882;2022-08-03T00:10:51;100775.13;;;19.10;85.03
43770;BME280;6597;52.218;9.882;2022-08-03T00:13:18;100768.31;;;19.06;85.37
43770;BME280;6597;52.218;9.882;2022-08-03T00:15:45;100768.53;;;19.03;85.46
43770;BME280;6597;52.218;9.882;2022-08-03T00:18:12;100766.94;;;19.01;85.72
43770;BME280;6597;52.218;9.882;2022-08-03T00:20:39;100762.69;;;18.98;85.91
43770;BME280;6597;52.218;9.882;2022-08-03T00:23:06;100761.09;;;18.95;86.25
43770;BME280;6597;52.218;9.882;2022-08-03T00:25:33;100761.22;;;18.94;86.77
43770;BME280;6597;52.218;9.882;2022-08-03T00:28:00;100764.19;;;18.89;86.95
43770;BME280;6597;52.218;9.882;2022-08-03T00:30:26;100770.66;;;18.85;87.11
43770;BME280;6597;52.218;9.882;2022-08-03T00:32:53;100763.00;;;18.81;87.12
43770;BME280;6597;52.218;9.882;2022-08-03T00:35:21;100759.69;;;18.77;87.29
43770;BME280;6597;52.218;9.882;2022-08-03T00:37:48;100760.88;;;18.73;87.63
43770;BME280;6597;52.218;9.882;2022-08-03T00:40:16;100764.50;;;18.72;87.72
43770;BME280;6597;52.218;9.882;2022-08-03T00:42:50;100766.63;;;18.67;87.77
43770;BME280;6597;52.218;9.882;2022-08-03T00:45:18;100761.50;;;18.64;87.83
43770;BME280;6597;52.218;9.882;2022-08-03T00:47:45;100756.47;;;18.59;88.34
43770;BME280;6597;52.218;9.882;2022-08-03T00:50:12;100762.97;;;18.55;88.33
43770;BME280;6597;52.218;9.882;2022-08-03T00:52:40;100754.31;;;18.52;88.73
43770;BME280;6597;52.218;9.882;2022-08-03T00:55:08;100755.38;;;18.49;88.74
43770;BME280;6597;52.218;9.882;2022-08-03T00:57:35;100760.06;;;18.46;88.72
43770;BME280;6597;52.218;9.882;2022-08-03T01:00:04;100757.50;;;18.44;88.74
43770;BME280;6597;52.218;9.882;2022-08-03T01:02:31;100759.31;;;18.44;88.62
43770;BME280;6597;52.218;9.882;2022-08-03T01:04:57;100755.06;;;18.41;89.00
43770;BME280;6597;52.218;9.882;2022-08-03T01:07:37;100756.13;;;18.39;89.31
43770;BME280;6597;52.218;9.882;2022-08-03T01:10:15;100758.03;;;18.37;89.62
43770;BME280;6597;52.218;9.882;2022-08-03T01:12:55;100751.22;;;18.32;89.63
43770;BME280;6597;52.218;9.882;2022-08-03T01:15:28;100750.47;;;18.30;89.86
43770;BME280;6597;52.218;9.882;2022-08-03T01:18:00;100752.38;;;18.28;90.25
43770;BME280;6597;52.218;9.882;2022-08-03T01:20:32;100747.50;;;18.22;90.21
43770;BME280;6597;52.218;9.882;2022-08-03T01:23:12;100756.59;;;18.18;90.80
43770;BME280;6597;52.218;9.882;2022-08-03T01:25:58;100752.44;;;18.14;90.89
43770;BME280;6597;52.218;9.882;2022-08-03T01:28:41;100750.94;;;18.10;91.48
43770;BME280;6597;52.218;9.882;2022-08-03T01:31:14;100747.53;;;18.08;91.48
43770;BME280;6597;52.218;9.882;2022-08-03T01:33:48;100752.84;;;18.08;91.92
43770;BME280;6597;52.218;9.882;2022-08-03T01:36:21;100754.97;;;18.03;91.95
43770;BME280;6597;52.218;9.882;2022-08-03T01:38:52;100756.78;;;18.02;92.38
43770;BME280;6597;52.218;9.882;2022-08-03T01:41:21;100756.97;;;17.99;92.43
43770;BME280;6597;52.218;9.882;2022-08-03T01:43:52;100747.41;;;17.97;92.65
43770;BME280;6597;52.218;9.882;2022-08-03T01:46:22;100747.63;;;17.94;92.73
43770;BME280;6597;52.218;9.882;2022-08-03T01:48:51;100748.56;;;17.93;92.86
43770;BME280;6597;52.218;9.882;2022-08-03T01:51:20;100749.53;;;17.92;93.17
43770;BME280;6597;52.218;9.882;2022-08-03T01:53:48;100748.78;;;17.90;93.43
43770;BME280;6597;52.218;9.882;2022-08-03T01:56:16;100751.50;;;17.88;93.28
43770;BME280;6597;52.218;9.882;2022-08-03T01:58:46;100748.09;;;17.86;93.15
43770;BME280;6597;52.218;9.882;2022-08-03T02:01:14;100749.91;;;17.86;93.70
43770;BME280;6597;52.218;9.882;2022-08-03T02:03:44;100749.03;;;17.85;93.63
43770;BME280;6597;52.218;9.882;2022-08-03T02:06:12;100761.47;;;17.85;93.50
43770;BME280;6597;52.218;9.882;2022-08-03T02:08:41;100743.75;;;17.85;92.82
43770;BME280;6597;52.218;9.882;2022-08-03T02:11:08;100755.09;;;17.87;92.78
43770;BME280;6597;52.218;9.882;2022-08-03T02:13:35;100756.81;;;17.88;92.13
43770;BME280;6597;52.218;9.882;2022-08-03T02:16:02;100753.31;;;17.88;92.24
43770;BME280;6597;52.218;9.882;2022-08-03T02:18:30;100751.59;;;17.87;92.32
43770;BME280;6597;52.218;9.882;2022-08-03T02:21:00;100748.94;;;17.87;91.68
43770;BME280;6597;52.218;9.882;2022-08-03T02:23:27;100746.28;;;17.87;92.02
43770;BME280;6597;52.218;9.882;2022-08-03T02:25:57;100743.63;;;17.87;91.57
43770;BME280;6597;52.218;9.882;2022-08-03T02:28:29;100745.44;;;17.86;91.64
43770;BME280;6597;52.218;9.882;2022-08-03T02:30:59;100736.63;;;17.86;91.59
43770;BME280;6597;52.218;9.882;2022-08-03T02:33:30;100738.63;;;17.82;91.35
43770;BME280;6597;52.218;9.882;2022-08-03T02:36:00;100737.78;;;17.82;91.46
43770;BME280;6597;52.218;9.882;2022-08-03T02:38:31;100740.63;;;17.79;91.75
43770;BME280;6597;52.218;9.882;2022-08-03T02:40:59;100745.19;;;17.77;91.10
43770;BME280;6597;52.218;9.882;2022-08-03T02:43:26;100738.09;;;17.77;91.49
43770;BME280;6597;52.218;9.882;2022-08-03T02:45:55;100733.72;;;17.76;90.84
43770;BME280;6597;52.218;9.882;2022-08-03T02:48:25;100733.94;;;17.73;91.22
43770;BME280;6597;52.218;9.882;2022-08-03T02:50:56;100727.75;;;17.72;91.05
43770;BME280;6597;52.218;9.882;2022-08-03T02:53:25;100727.97;;;17.69;90.98
43770;BME280;6597;52.218;9.882;2022-08-03T02:55:54;100724.63;;;17.66;91.26
43770;BME280;6597;52.218;9.882;2022-08-03T02:58:22;100736.31;;;17.63;91.10
43770;BME280;6597;52.218;9.882;2022-08-03T03:00:50;100722.28;;;17.61;91.10
43770;BME280;6597;52.218;9.882;2022-08-03T03:03:18;100724.84;;;17.63;91.13
43770;BME280;6597;52.218;9.882;2022-08-03T03:05:45;100723.03;;;17.63;90.96
43770;BME280;6597;52.218;9.882;2022-08-03T03:08:13;100728.53;;;17.60;90.94
43770;BME280;6597;52.218;9.882;2022-08-03T03:10:42;100721.63;;;17.58;91.18
43770;BME280;6597;52.218;9.882;2022-08-03T03:13:10;100727.09;;;17.55;91.14
43770;BME280;6597;52.218;9.882;2022-08-03T03:15:39;100724.56;;;17.53;90.98
43770;BME280;6597;52.218;9.882;2022-08-03T03:18:07;100727.22;;;17.53;91.17
43770;BME280;6597;52.218;9.882;2022-08-03T03:20:35;100725.50;;;17.52;91.18
43770;BME280;6597;52.218;9.882;2022-08-03T03:23:04;100726.47;;;17.51;91.44
43770;BME280;6597;52.218;9.882;2022-08-03T03:25:31;100732.72;;;17.50;91.17
43770;BME280;6597;52.218;9.882;2022-08-03T03:28:00;100725.72;;;17.49;91.13
43770;BME280;6597;52.218;9.882;2022-08-03T03:30:27;100729.31;;;17.48;91.28
43770;BME280;6597;52.218;9.882;2022-08-03T03:32:54;100730.25;;;17.47;90.91
43770;BME280;6597;52.218;9.882;2022-08-03T03:35:21;100729.31;;;17.48;91.23
43770;BME280;6597;52.218;9.882;2022-08-03T03:37:47;100727.72;;;17.46;91.14
43770;BME280;6597;52.218;9.882;2022-08-03T03:40:14;100727.91;;;17.42;91.41
43770;BME280;6597;52.218;9.882;2022-08-03T03:42:41;100723.66;;;17.40;91.23
43770;BME280;6597;52.218;9.882;2022-08-03T03:45:10;100732.66;;;17.37;91.67
43770;BME280;6597;52.218;9.882;2022-08-03T03:47:37;100736.38;;;17.35;91.95
43770;BME280;6597;52.218;9.882;2022-08-03T03:50:05;100741.00;;;17.31;91.95
43770;BME280;6597;52.218;9.882;2022-08-03T03:52:32;100734.19;;;17.27;92.35
43770;BME280;6597;52.218;9.882;2022-08-03T03:54:58;100732.59;;;17.25;92.63
43770;BME280;6597;52.218;9.882;2022-08-03T03:57:26;100735.41;;;17.22;93.34
43770;BME280;6597;52.218;9.882;2022-08-03T03:59:52;100739.97;;;17.20;93.52
43770;BME280;6597;52.218;9.882;2022-08-03T04:02:20;100736.47;;;17.19;93.30
43770;BME280;6597;52.218;9.882;2022-08-03T04:04:47;100731.16;;;17.19;93.75
43770;BME280;6597;52.218;9.882;2022-08-03T04:07:40;100734.66;;;17.20;94.14
43770;BME280;6597;52.218;9.882;2022-08-03T04:10:30;100736.47;;;17.19;94.51
43770;BME280;6597;52.218;9.882;2022-08-03T04:13:17;100728.50;;;17.19;94.54
43770;BME280;6597;52.218;9.882;2022-08-03T04:15:46;100732.75;;;17.22;94.59
43770;BME280;6597;52.218;9.882;2022-08-03T04:18:15;100735.31;;;17.23;94.66
43770;BME280;6597;52.218;9.882;2022-08-03T04:20:44;100738.75;;;17.25;94.40
43770;BME280;6597;52.218;9.882;2022-08-03T04:23:12;100740.34;;;17.28;94.42
43770;BME280;6597;52.218;9.882;2022-08-03T04:25:41;100742.91;;;17.29;93.90
43770;BME280;6597;52.218;9.882;2022-08-03T04:28:09;100743.75;;;17.30;94.28
43770;BME280;6597;52.218;9.882;2022-08-03T04:30:37;100743.38;;;17.36;93.43
43770;BME280;6597;52.218;9.882;2022-08-03T04:33:12;100752.84;;;17.40;93.38
43770;BME280;6597;52.218;9.882;2022-08-03T04:35:43;100739.38;;;17.43;93.54
43770;BME280;6597;52.218;9.882;2022-08-03T04:38:13;100752.16;;;17.51;92.18
43770;BME280;6597;52.218;9.882;2022-08-03T04:40:41;100749.88;;;17.59;91.54
43770;BME280;6597;52.218;9.882;2022-08-03T04:43:10;100748.47;;;17.67;91.28
43770;BME280;6597;52.218;9.882;2022-08-03T04:45:39;100743.50;;;17.76;91.02
43770;BME280;6597;52.218;9.882;2022-08-03T04:48:06;100744.69;;;17.84;90.55
43770;BME280;6597;52.218;9.882;2022-08-03T04:50:34;100750.28;;;17.94;89.85
43770;BME280;6597;52.218;9.882;2022-08-03T04:53:05;100751.56;;;18.01;89.99
43770;BME280;6597;52.218;9.882;2022-08-03T04:55:33;100751.06;;;18.09;88.76
43770;BME280;6597;52.218;9.882;2022-08-03T04:58:01;100753.19;;;18.16;88.31
43770;BME280;6597;52.218;9.882;2022-08-03T05:00:28;100748.25;;;18.24;88.29
43770;BME280;6597;52.218;9.882;2022-08-03T05:02:55;100761.09;;;18.30;88.04
43770;BME280;6597;52.218;9.882;2022-08-03T05:05:22;100758.88;;;18.37;87.88
43770;BME280;6597;52.218;9.882;2022-08-03T05:07:49;100753.16;;;18.43;87.37
43770;BME280;6597;52.218;9.882;2022-08-03T05:10:17;100764.09;;;18.51;87.21
43770;BME280;6597;52.218;9.882;2022-08-03T05:12:44;100764.66;;;18.56;87.08
43770;BME280;6597;52.218;9.882;2022-08-03T05:15:11;100763.44;;;18.62;87.68
43770;BME280;6597;52.218;9.882;2022-08-03T05:17:38;100761.19;;;18.69;87.17
43770;BME280;6597;52.218;9.882;2022-08-03T05:20:05;100760.88;;;18.73;87.00
43770;BME280;6597;52.218;9.882;2022-08-03T05:22:32;100757.69;;;18.81;87.09
43770;BME280;6597;52.218;9.882;2022-08-03T05:24:59;100764.31;;;18.88;86.90
43770;BME280;6597;52.218;9.882;2022-08-03T05:27:27;100763.00;;;18.93;86.95
43770;BME280;6597;52.218;9.882;2022-08-03T05:29:54;100753.53;;;19.02;86.31
43770;BME280;6597;52.218;9.882;2022-08-03T05:32:21;100747.88;;;19.07;85.92
43770;BME280;6597;52.218;9.882;2022-08-03T05:34:47;100746.25;;;19.17;86.17
43770;BME280;6597;52.218;9.882;2022-08-03T05:37:14;100755.53;;;19.24;86.09
43770;BME280;6597;52.218;9.882;2022-08-03T05:39:40;100747.22;;;19.28;84.93
43770;BME280;6597;52.218;9.882;2022-08-03T05:42:07;100762.19;;;19.42;82.61
43770;BME280;6597;52.218;9.882;2022-08-03T05:44:36;100752.91;;;19.48;82.91
43770;BME280;6597;52.218;9.882;2022-08-03T05:47:03;100746.22;;;19.55;81.94
43770;BME280;6597;52.218;9.882;2022-08-03T05:49:30;100751.00;;;19.63;81.34
43770;BME280;6597;52.218;9.882;2022-08-03T05:51:56;100743.06;;;19.74;81.22
43770;BME280;6597;52.218;9.882;2022-08-03T05:54:23;100741.31;;;19.85;80.33
43770;BME280;6597;52.218;9.882;2022-08-03T05:56:50;100745.13;;;19.94;78.45
43770;BME280;6597;52.218;9.882;2022-08-03T05:59:16;100742.84;;;20.01;78.61
43770;BME280;6597;52.218;9.882;2022-08-03T06:01:45;100753.41;;;20.13;78.30
43770;BME280;6597;52.218;9.882;2022-08-03T06:04:11;100745.97;;;20.30;78.48
43770;BME280;6597;52.218;9.882;2022-08-03T06:06:38;100748.59;;;20.42;77.77
43770;BME280;6597;52.218;9.882;2022-08-03T06:09:05;100751.19;;;20.55;77.71
43770;BME280;6597;52.218;9.882;2022-08-03T06:11:32;100763.31;;;20.70;77.04
43770;BME280;6597;52.218;9.882;2022-08-03T06:13:58;100752.56;;;20.83;75.81
43770;BME280;6597;52.218;9.882;2022-08-03T06:16:25;100743.97;;;21.02;76.14
43770;BME280;6597;52.218;9.882;2022-08-03T06:18:53;100749.56;;;21.21;74.65
43770;BME280;6597;52.218;9.882;2022-08-03T06:21:19;100754.03;;;21.43;74.03
43770;BME280;6597;52.218;9.882;2022-08-03T06:23:46;100746.38;;;21.61;73.26
43770;BME280;6597;52.218;9.882;2022-08-03T06:26:13;100752.41;;;21.74;71.98
43770;BME280;6597;52.218;9.882;2022-08-03T06:28:39;100746.53;;;21.91;71.22
43770;BME280;6597;52.218;9.882;2022-08-03T06:31:06;100742.13;;;22.13;69.49
43770;BME280;6597;52.218;9.882;2022-08-03T06:33:33;100740.31;;;22.34;68.40
43770;BME280;6597;52.218;9.882;2022-08-03T06:36:01;100753.69;;;22.55;67.83
43770;BME280;6597;52.218;9.882;2022-08-03T06:38:28;100755.88;;;22.82;67.95
43770;BME280;6597;52.218;9.882;2022-08-03T06:40:54;100755.28;;;23.09;66.32
43770;BME280;6597;52.218;9.882;2022-08-03T06:43:21;100746.84;;;23.44;66.29
43770;BME280;6597;52.218;9.882;2022-08-03T06:45:48;100753.72;;;23.86;63.79
43770;BME280;6597;52.218;9.882;2022-08-03T06:48:14;100754.84;;;24.23;61.18
43770;BME280;6597;52.218;9.882;2022-08-03T06:50:41;100755.69;;;24.62;59.54
43770;BME280;6597;52.218;9.882;2022-08-03T06:53:10;100755.59;;;25.00;59.74
43770;BME280;6597;52.218;9.882;2022-08-03T06:55:36;100758.00;;;25.40;57.64
43770;BME280;6597;52.218;9.882;2022-08-03T06:58:03;100755.50;;;25.84;54.50
43770;BME280;6597;52.218;9.882;2022-08-03T07:00:30;100763.25;;;26.23;53.69
43770;BME280;6597;52.218;9.882;2022-08-03T07:02:56;100760.25;;;26.61;51.90
43770;BME280;6597;52.218;9.882;2022-08-03T07:05:23;100759.94;;;26.90;51.79
43770;BME280;6597;52.218;9.882;2022-08-03T07:07:50;100758.59;;;27.12;49.02
43770;BME280;6597;52.218;9.882;2022-08-03T07:10:17;100769.59;;;27.27;47.83
43770;BME280;6597;52.218;9.882;2022-08-03T07:12:44;100768.25;;;27.31;48.56
43770;BME280;6597;52.218;9.882;2022-08-03T07:15:13;100770.94;;;27.31;47.37
43770;BME280;6597;52.218;9.882;2022-08-03T07:17:39;100766.41;;;27.32;48.19
43770;BME280;6597;52.218;9.882;2022-08-03T07:20:07;100770.19;;;27.47;48.61
43770;BME280;6597;52.218;9.882;2022-08-03T07:22:34;100768.41;;;27.64;46.17
43770;BME280;6597;52.218;9.882;2022-08-03T07:25:01;100768.13;;;27.83;46.59
43770;BME280;6597;52.218;9.882;2022-08-03T07:27:30;100763.13;;;28.04;46.13
43770;BME280;6597;52.218;9.882;2022-08-03T07:29:58;100769.19;;;28.23;45.60
43770;BME280;6597;52.218;9.882;2022-08-03T07:32:25;100768.91;;;28.42;44.80
43770;BME280;6597;52.218;9.882;2022-08-03T07:34:53;100756.91;;;28.52;44.67
43770;BME280;6597;52.218;9.882;2022-08-03T07:37:19;100764.84;;;28.70;43.33
43770;BME280;6597;52.218;9.882;2022-08-03T07:39:46;100771.25;;;28.77;44.01
43770;BME280;6597;52.218;9.882;2022-08-03T07:42:12;100771.59;;;28.99;43.66
43770;BME280;6597;52.218;9.882;2022-08-03T07:44:40;100773.56;;;29.13;42.85
43770;BME280;6597;52.218;9.882;2022-08-03T07:47:07;100776.72;;;29.33;43.10
43770;BME280;6597;52.218;9.882;2022-08-03T07:49:38;100772.03;;;29.58;42.39
43770;BME280;6597;52.218;9.882;2022-08-03T07:52:04;100771.31;;;29.72;41.67
43770;BME280;6597;52.218;9.882;2022-08-03T07:54:49;100772.81;;;30.06;41.59
43770;BME280;6597;52.218;9.882;2022-08-03T07:57:15;100772.50;;;30.23;40.34
43770;BME280;6597;52.218;9.882;2022-08-03T07:59:44;100769.88;;;30.38;39.81
43770;BME280;6597;52.218;9.882;2022-08-03T08:02:11;100768.34;;;30.58;40.12
43770;BME280;6597;52.218;9.882;2022-08-03T08:04:38;100760.53;;;30.78;39.93
43770;BME280;6597;52.218;9.882;2022-08-03T08:07:05;100764.38;;;30.84;39.29
43770;BME280;6597;52.218;9.882;2022-08-03T08:09:31;100763.53;;;30.83;39.41
43770;BME280;6597;52.218;9.882;2022-08-03T08:11:58;100765.34;;;30.91;40.38
43770;BME280;6597;52.218;9.882;2022-08-03T08:14:25;100760.66;;;31.00;39.04
43770;BME280;6597;52.218;9.882;2022-08-03T08:16:53;100758.50;;;31.10;39.78
43770;BME280;6597;52.218;9.882;2022-08-03T08:19:19;100757.91;;;31.22;39.49
43770;BME280;6597;52.218;9.882;2022-08-03T08:21:46;100755.41;;;31.13;38.81
43770;BME280;6597;52.218;9.882;2022-08-03T08:24:12;100764.22;;;31.00;38.94
43770;BME280;6597;52.218;9.882;2022-08-03T08:26:39;100760.09;;;31.04;39.13
43770;BME280;6597;52.218;9.882;2022-08-03T08:29:06;100766.38;;;31.19;39.53
43770;BME280;6597;52.218;9.882;2022-08-03T08:31:32;100762.25;;;31.38;38.98
43770;BME280;6597;52.218;9.882;2022-08-03T08:34:00;100765.31;;;31.50;39.92
43770;BME280;6597;52.218;9.882;2022-08-03T08:36:30;100753.72;;;31.71;39.34
43770;BME280;6597;52.218;9.882;2022-08-03T08:38:57;100759.06;;;32.00;37.83
43770;BME280;6597;52.218;9.882;2022-08-03T08:41:24;100761.25;;;32.11;37.79
43770;BME280;6597;52.218;9.882;2022-08-03T08:43:50;100761.97;;;32.20;37.60
43770;BME280;6597;52.218;9.882;2022-08-03T08:46:18;100753.63;;;32.43;37.35
43770;BME280;6597;52.218;9.882;2022-08-03T08:48:45;100750.00;;;32.57;37.76
43770;BME280;6597;52.218;9.882;2022-08-03T08:51:15;100755.75;;;32.75;37.01
43770;BME280;6597;52.218;9.882;2022-08-03T08:53:47;100750.66;;;32.87;37.00
43770;BME280;6597;52.218;9.882;2022-08-03T08:56:15;100754.25;;;32.94;36.89
43770;BME280;6597;52.218;9.882;2022-08-03T08:58:47;100755.44;;;32.85;36.18
43770;BME280;6597;52.218;9.882;2022-08-03T09:01:16;100753.84;;;32.97;37.48
43770;BME280;6597;52.218;9.882;2022-08-03T09:03:43;100754.75;;;33.11;36.43
43770;BME280;6597;52.218;9.882;2022-08-03T09:06:10;100747.75;;;33.30;36.10
43770;BME280;6597;52.218;9.882;2022-08-03T09:08:38;100746.81;;;33.51;36.01
43770;BME280;6597;52.218;9.882;2022-08-03T09:11:04;100750.63;;;33.69;35.05
43770;BME280;6597;52.218;9.882;2022-08-03T09:13:32;100754.06;;;33.85;35.39
43770;BME280;6597;52.218;9.882;2022-08-03T09:16:12;100743.41;;;33.96;34.96
43770;BME280;6597;52.218;9.882;2022-08-03T09:18:39;100739.13;;;33.81;34.53
43770;BME280;6597;52.218;9.882;2022-08-03T09:21:19;100748.75;;;33.70;34.15
43770;BME280;6597;52.218;9.882;2022-08-03T09:23:49;100748.75;;;33.70;35.05
43770;BME280;6597;52.218;9.882;2022-08-03T09:26:21;100747.72;;;33.71;33.74
43770;BME280;6597;52.218;9.882;2022-08-03T09:28:55;100745.78;;;33.58;34.70
43770;BME280;6597;52.218;9.882;2022-08-03T09:31:30;100745.38;;;33.55;35.31
43770;BME280;6597;52.218;9.882;2022-08-03T09:33:57;100747.47;;;33.53;34.81
43770;BME280;6597;52.218;9.882;2022-08-03T09:36:35;100748.53;;;33.65;35.50
43770;BME280;6597;52.218;9.882;2022-08-03T09:39:04;100752.00;;;33.93;35.02
43770;BME280;6597;52.218;9.882;2022-08-03T09:41:31;100751.81;;;34.21;35.50
43770;BME280;6597;52.218;9.882;2022-08-03T09:43:58;100748.25;;;34.27;34.14
43770;BME280;6597;52.218;9.882;2022-08-03T09:46:25;100749.09;;;34.21;34.01
43770;BME280;6597;52.218;9.882;2022-08-03T09:49:09;100746.56;;;34.13;34.42
43770;BME280;6597;52.218;9.882;2022-08-03T09:51:36;100746.38;;;34.28;34.82
43770;BME280;6597;52.218;9.882;2022-08-03T09:54:05;100760.66;;;34.37;33.27
43770;BME280;6597;52.218;9.882;2022-08-03T09:56:43;100756.66;;;34.26;33.14
43770;BME280;6597;52.218;9.882;2022-08-03T09:59:10;100744.31;;;34.37;33.34
43770;BME280;6597;52.218;9.882;2022-08-03T10:01:37;100737.59;;;34.46;33.75
43770;BME280;6597;52.218;9.882;2022-08-03T10:04:10;100732.78;;;34.35;32.97
43770;BME280;6597;52.218;9.882;2022-08-03T10:06:38;100725.22;;;34.56;34.06
43770;BME280;6597;52.218;9.882;2022-08-03T10:09:08;100727.91;;;34.76;33.13
43770;BME280;6597;52.218;9.882;2022-08-03T10:11:36;100728.97;;;34.29;32.71
43770;BME280;6597;52.218;9.882;2022-08-03T10:14:04;100720.81;;;34.22;33.18
43770;BME280;6597;52.218;9.882;2022-08-03T10:16:33;100730.06;;;34.35;33.48
43770;BME280;6597;52.218;9.882;2022-08-03T10:19:00;100730.91;;;34.48;33.32
43770;BME280;6597;52.218;9.882;2022-08-03T10:21:31;100733.59;;;34.61;32.35
43770;BME280;6597;52.218;9.882;2022-08-03T10:23:58;100723.94;;;34.72;32.13
43770;BME280;6597;52.218;9.882;2022-08-03T10:26:30;100724.78;;;34.66;30.90
43770;BME280;6597;52.218;9.882;2022-08-03T10:29:01;100717.47;;;34.53;31.40
43770;BME280;6597;52.218;9.882;2022-08-03T10:31:33;100715.16;;;34.57;31.61
43770;BME280;6597;52.218;9.882;2022-08-03T10:34:04;100709.25;;;34.67;32.44
43770;BME280;6597;52.218;9.882;2022-08-03T10:36:33;100717.63;;;34.78;31.94
43770;BME280;6597;52.218;9.882;2022-08-03T10:39:03;100714.28;;;34.89;31.97
43770;BME280;6597;52.218;9.882;2022-08-03T10:41:35;100715.13;;;34.90;31.40
43770;BME280;6597;52.218;9.882;2022-08-03T10:44:05;100704.88;;;34.85;31.49
43770;BME280;6597;52.218;9.882;2022-08-03T10:46:33;100693.28;;;34.97;31.59
43770;BME280;6597;52.218;9.882;2022-08-03T10:49:02;100700.13;;;35.12;31.23
43770;BME280;6597;52.218;9.882;2022-08-03T10:51:29;100704.81;;;34.99;31.34
43770;BME280;6597;52.218;9.882;2022-08-03T10:53:57;100701.28;;;34.91;31.58
43770;BME280;6597;52.218;9.882;2022-08-03T10:56:38;100694.75;;;34.99;31.38
43770;BME280;6597;52.218;9.882;2022-08-03T10:59:57;100696.56;;;35.12;31.83
43770;BME280;6597;52.218;9.882;2022-08-03T11:05:26;100691.06;;;35.25;30.64
43770;BME280;6597;52.218;9.882;2022-08-03T11:08:27;100696.00;;;34.97;31.77
43770;BME280;6597;52.218;9.882;2022-08-03T11:10:56;100691.09;;;35.12;31.80
43770;BME280;6597;52.218;9.882;2022-08-03T11:13:26;100688.75;;;35.35;31.45
43770;BME280;6597;52.218;9.882;2022-08-03T11:15:57;100696.41;;;35.58;31.26
43770;BME280;6597;52.218;9.882;2022-08-03T11:18:24;100695.56;;;35.58;30.57
43770;BME280;6597;52.218;9.882;2022-08-03T11:20:53;100691.38;;;35.55;31.08
43770;BME280;6597;52.218;9.882;2022-08-03T11:23:41;100698.06;;;35.59;31.08
43770;BME280;6597;52.218;9.882;2022-08-03T11:26:12;100684.19;;;35.61;30.67
43770;BME280;6597;52.218;9.882;2022-08-03T11:28:42;100692.25;;;35.87;31.37
43770;BME280;6597;52.218;9.882;2022-08-03T11:31:43;100678.03;;;36.03;30.25
43770;BME280;6597;52.218;9.882;2022-08-03T11:34:15;100669.94;;;35.90;32.02
43770;BME280;6597;52.218;9.882;2022-08-03T11:37:22;100677.91;;;35.92;31.86
43770;BME280;6597;52.218;9.882;2022-08-03T11:39:53;100685.53;;;36.14;31.90
43770;BME280;6597;52.218;9.882;2022-08-03T11:42:40;100684.06;;;36.37;30.34
43770;BME280;6597;52.218;9.882;2022-08-03T11:45:11;100671.00;;;36.39;30.63
43770;BME280;6597;52.218;9.882;2022-08-03T11:47:38;100672.72;;;36.58;30.28
43770;BME280;6597;52.218;9.882;2022-08-03T11:50:07;100672.19;;;36.68;29.65
43770;BME280;6597;52.218;9.882;2022-08-03T11:52:38;100674.13;;;36.86;30.30
43770;BME280;6597;52.218;9.882;2022-08-03T11:55:12;100675.28;;;36.96;29.24
43770;BME280;6597;52.218;9.882;2022-08-03T11:57:39;100679.94;;;36.78;29.64
43770;BME280;6597;52.218;9.882;2022-08-03T12:00:25;100674.78;;;36.63;29.35
43770;BME280;6597;52.218;9.882;2022-08-03T12:03:11;100677.59;;;36.56;30.91
43770;BME280;6597;52.218;9.882;2022-08-03T12:05:49;100672.06;;;36.38;29.60
43770;BME280;6597;52.218;9.882;2022-08-03T12:08:18;100671.47;;;36.11;30.79
43770;BME280;6597;52.218;9.882;2022-08-03T12:10:46;100676.19;;;36.22;29.39
43770;BME280;6597;52.218;9.882;2022-08-03T12:13:13;100679.59;;;36.17;30.68
43770;BME280;6597;52.218;9.882;2022-08-03T12:15:42;100678.56;;;36.62;30.26
43770;BME280;6597;52.218;9.882;2022-08-03T12:18:13;100681.13;;;37.00;29.49
43770;BME280;6597;52.218;9.882;2022-08-03T12:20:42;100659.53;;;36.30;29.22
43770;BME280;6597;52.218;9.882;2022-08-03T12:23:10;100657.28;;;36.21;30.80
43770;BME280;6597;52.218;9.882;2022-08-03T12:25:39;100663.75;;;36.26;30.02
43770;BME280;6597;52.218;9.882;2022-08-03T12:28:09;100661.53;;;36.41;29.65
43770;BME280;6597;52.218;9.882;2022-08-03T12:30:37;100667.50;;;36.32;29.69
43770;BME280;6597;52.218;9.882;2022-08-03T12:33:17;100657.28;;;36.21;30.54
43770;BME280;6597;52.218;9.882;2022-08-03T12:35:47;100655.22;;;36.41;31.71
43770;BME280;6597;52.218;9.882;2022-08-03T12:38:19;100655.09;;;36.72;29.64
43770;BME280;6597;52.218;9.882;2022-08-03T12:40:55;100656.81;;;37.10;29.89
43770;BME280;6597;52.218;9.882;2022-08-03T12:43:21;100655.19;;;37.02;29.05
43770;BME280;6597;52.218;9.882;2022-08-03T12:45:48;100651.75;;;37.07;28.93
43770;BME280;6597;52.218;9.882;2022-08-03T12:48:16;100648.56;;;36.73;28.70
43770;BME280;6597;52.218;9.882;2022-08-03T12:50:43;100648.13;;;36.76;29.16
43770;BME280;6597;52.218;9.882;2022-08-03T12:53:09;100639.31;;;37.11;29.31
43770;BME280;6597;52.218;9.882;2022-08-03T12:55:37;100652.44;;;37.21;29.14
43770;BME280;6597;52.218;9.882;2022-08-03T12:58:04;100649.03;;;37.25;29.10
43770;BME280;6597;52.218;9.882;2022-08-03T13:00:31;100633.47;;;37.37;28.75
43770;BME280;6597;52.218;9.882;2022-08-03T13:03:00;100639.63;;;37.51;28.77
43770;BME280;6597;52.218;9.882;2022-08-03T13:05:29;100641.38;;;37.46;28.14
43770;BME280;6597;52.218;9.882;2022-08-03T13:07:57;100642.13;;;37.53;28.88
43770;BME280;6597;52.218;9.882;2022-08-03T13:10:27;100646.53;;;37.65;29.50
43770;BME280;6597;52.218;9.882;2022-08-03T13:12:55;100644.13;;;37.76;28.25
43770;BME280;6597;52.218;9.882;2022-08-03T13:15:25;100636.38;;;37.84;28.31